sensor_id;sensor_type;location;lat;lon;timestamp;temperature;humidity
24402;DHT22;12539;48.808;11.292;2022-07-17T00:01:36;21.60;47.20
24402;DHT22;12539;48.808;11.292;2022-07-17T00:04:01;21.60;47.60
24402;DHT22;12539;48.808;11.292;2022-07-17T00:06:27;21.60;47.50
24402;DHT22;12539;48.808;11.292;2022-07-17T00:08:53;21.60;47.40
24402;DHT22;12539;48.808;11.292;2022-07-17T00:11:18;21.50;47.40
24402;DHT22;12539;48.808;11.292;2022-07-17T00:13:44;21.50;47.60
24402;DHT22;12539;48.808;11.292;2022-07-17T00:16:10;21.50;47.90
24402;DHT22;12539;48.808;11.292;2022-07-17T00:18:35;21.50;48.30
24402;DHT22;12539;48.808;11.292;2022-07-17T00:21:01;21.50;48.20
24402;DHT22;12539;48.808;11.292;2022-07-17T00:23:27;21.50;48.40
24402;DHT22;12539;48.808;11.292;2022-07-17T00:25:53;21.50;48.50
24402;DHT22;12539;48.808;11.292;2022-07-17T00:28:18;21.40;48.40
24402;DHT22;12539;48.808;11.292;2022-07-17T00:30:44;21.50;48.30
24402;DHT22;12539;48.808;11.292;2022-07-17T00:33:10;21.50;48.10
24402;DHT22;12539;48.808;11.292;2022-07-17T00:35:35;21.40;47.70
24402;DHT22;12539;48.808;11.292;2022-07-17T00:38:01;21.40;47.70
24402;DHT22;12539;48.808;11.292;2022-07-17T00:40:27;21.40;48.00
24402;DHT22;12539;48.808;11.292;2022-07-17T00:42:53;21.40;48.50
24402;DHT22;12539;48.808;11.292;2022-07-17T00:45:19;21.30;49.00
24402;DHT22;12539;48.808;11.292;2022-07-17T00:47:58;21.30;49.40
24402;DHT22;12539;48.808;11.292;2022-07-17T00:50:34;21.30;49.40
24402;DHT22;12539;48.808;11.292;2022-07-17T00:53:01;21.30;50.10
24402;DHT22;12539;48.808;11.292;2022-07-17T00:55:27;21.20;50.40
24402;DHT22;12539;48.808;11.292;2022-07-17T00:57:55;21.20;50.40
24402;DHT22;12539;48.808;11.292;2022-07-17T01:00:22;21.20;50.20
24402;DHT22;12539;48.808;11.292;2022-07-17T01:02:50;21.20;50.10
24402;DHT22;12539;48.808;11.292;2022-07-17T01:05:17;21.20;49.90
24402;DHT22;12539;48.808;11.292;2022-07-17T01:07:44;21.20;49.50
24402;DHT22;12539;48.808;11.292;2022-07-17T01:10:11;21.10;49.20
24402;DHT22;12539;48.808;11.292;2022-07-17T01:12:37;21.00;48.60
24402;DHT22;12539;48.808;11.292;2022-07-17T01:15:03;20.90;48.60
24402;DHT22;12539;48.808;11.292;2022-07-17T01:17:30;20.80;48.40
24402;DHT22;12539;48.808;11.292;2022-07-17T01:19:56;20.70;48.60
24402;DHT22;12539;48.808;11.292;2022-07-17T01:22:22;20.60;49.00
24402;DHT22;12539;48.808;11.292;2022-07-17T01:24:48;20.50;50.10
24402;DHT22;12539;48.808;11.292;2022-07-17T01:27:15;20.40;51.00
24402;DHT22;12539;48.808;11.292;2022-07-17T01:29:41;20.40;50.80
24402;DHT22;12539;48.808;11.292;2022-07-17T01:32:06;20.40;50.40
24402;DHT22;12539;48.808;11.292;2022-07-17T01:34:32;20.40;49.80
24402;DHT22;12539;48.808;11.292;2022-07-17T01:36:58;20.30;49.50
24402;DHT22;12539;48.808;11.292;2022-07-17T01:39:24;20.30;49.90
24402;DHT22;12539;48.808;11.292;2022-07-17T01:42:09;20.30;50.40
24402;DHT22;12539;48.808;11.292;2022-07-17T01:44:37;20.30;50.50
24402;DHT22;12539;48.808;11.292;2022-07-17T01:47:03;20.30;51.10
24402;DHT22;12539;48.808;11.292;2022-07-17T01:49:29;20.30;50.70
24402;DHT22;12539;48.808;11.292;2022-07-17T01:51:55;20.30;50.00
24402;DHT22;12539;48.808;11.292;2022-07-17T01:54:31;20.30;50.00
24402;DHT22;12539;48.808;11.292;2022-07-17T01:56:58;20.20;50.70
24402;DHT22;12539;48.808;11.292;2022-07-17T01:59:24;20.20;50.10
24402;DHT22;12539;48.808;11.292;2022-07-17T02:01:49;20.10;50.10
24402;DHT22;12539;48.808;11.292;2022-07-17T02:04:15;20.10;50.20
24402;DHT22;12539;48.808;11.292;2022-07-17T02:06:41;20.10;50.70
24402;DHT22;12539;48.808;11.292;2022-07-17T02:09:07;20.10;51.80
24402;DHT22;12539;48.808;11.292;2022-07-17T02:11:32;20.10;51.70
24402;DHT22;12539;48.808;11.292;2022-07-17T02:13:58;20.10;51.00
24402;DHT22;12539;48.808;11.292;2022-07-17T02:16:24;20.10;50.30
24402;DHT22;12539;48.808;11.292;2022-07-17T02:18:49;20.10;50.00
24402;DHT22;12539;48.808;11.292;2022-07-17T02:21:15;20.10;50.10
24402;DHT22;12539;48.808;11.292;2022-07-17T02:23:41;20.10;50.30
24402;DHT22;12539;48.808;11.292;2022-07-17T02:26:07;20.00;50.70
24402;DHT22;12539;48.808;11.292;2022-07-17T02:28:34;20.00;50.20
24402;DHT22;12539;48.808;11.292;2022-07-17T02:30:59;19.90;50.30
24402;DHT22;12539;48.808;11.292;2022-07-17T02:33:25;19.80;50.50
24402;DHT22;12539;48.808;11.292;2022-07-17T02:35:51;19.80;50.00
24402;DHT22;12539;48.808;11.292;2022-07-17T02:38:16;19.70;49.70
24402;DHT22;12539;48.808;11.292;2022-07-17T02:40:42;19.60;49.60
24402;DHT22;12539;48.808;11.292;2022-07-17T02:43:08;19.50;50.60
24402;DHT22;12539;48.808;11.292;2022-07-17T02:45:34;19.40;50.20
24402;DHT22;12539;48.808;11.292;2022-07-17T02:47:59;19.40;49.80
24402;DHT22;12539;48.808;11.292;2022-07-17T02:50:25;19.30;50.50
24402;DHT22;12539;48.808;11.292;2022-07-17T02:52:51;19.30;51.10
24402;DHT22;12539;48.808;11.292;2022-07-17T02:55:17;19.30;52.10
24402;DHT22;12539;48.808;11.292;2022-07-17T02:57:43;19.30;52.30
24402;DHT22;12539;48.808;11.292;2022-07-17T03:00:13;19.30;51.90
24402;DHT22;12539;48.808;11.292;2022-07-17T03:02:45;19.30;52.10
24402;DHT22;12539;48.808;11.292;2022-07-17T03:05:12;19.40;52.80
24402;DHT22;12539;48.808;11.292;2022-07-17T03:07:39;19.50;52.40
24402;DHT22;12539;48.808;11.292;2022-07-17T03:10:05;19.50;51.90
24402;DHT22;12539;48.808;11.292;2022-07-17T03:12:32;19.60;51.00
24402;DHT22;12539;48.808;11.292;2022-07-17T03:14:57;19.60;50.00
24402;DHT22;12539;48.808;11.292;2022-07-17T03:17:23;19.50;49.70
24402;DHT22;12539;48.808;11.292;2022-07-17T03:19:49;19.30;50.30
24402;DHT22;12539;48.808;11.292;2022-07-17T03:22:14;19.20;50.70
24402;DHT22;12539;48.808;11.292;2022-07-17T03:24:41;19.10;50.80
24402;DHT22;12539;48.808;11.292;2022-07-17T03:27:07;19.00;51.30
24402;DHT22;12539;48.808;11.292;2022-07-17T03:29:32;18.90;51.60
24402;DHT22;12539;48.808;11.292;2022-07-17T03:31:58;18.90;51.70
24402;DHT22;12539;48.808;11.292;2022-07-17T03:34:24;18.80;51.80
24402;DHT22;12539;48.808;11.292;2022-07-17T03:36:50;18.70;52.30
24402;DHT22;12539;48.808;11.292;2022-07-17T03:39:16;18.70;52.30
24402;DHT22;12539;48.808;11.292;2022-07-17T03:41:41;18.70;52.60
24402;DHT22;12539;48.808;11.292;2022-07-17T03:44:07;18.70;52.70
24402;DHT22;12539;48.808;11.292;2022-07-17T03:46:33;18.70;53.20
24402;DHT22;12539;48.808;11.292;2022-07-17T03:48:59;18.70;52.90
24402;DHT22;12539;48.808;11.292;2022-07-17T03:51:25;18.70;52.80
24402;DHT22;12539;48.808;11.292;2022-07-17T03:53:51;18.80;52.90
24402;DHT22;12539;48.808;11.292;2022-07-17T03:56:16;18.80;52.60
24402;DHT22;12539;48.808;11.292;2022-07-17T03:58:42;18.80;52.50
24402;DHT22;12539;48.808;11.292;2022-07-17T04:01:08;18.90;52.60
24402;DHT22;12539;48.808;11.292;2022-07-17T04:03:34;18.90;52.80
24402;DHT22;12539;48.808;11.292;2022-07-17T04:06:01;18.90;52.80
24402;DHT22;12539;48.808;11.292;2022-07-17T04:08:27;19.00;52.70
24402;DHT22;12539;48.808;11.292;2022-07-17T04:10:52;19.00;52.60
24402;DHT22;12539;48.808;11.292;2022-07-17T04:13:18;19.00;52.30
24402;DHT22;12539;48.808;11.292;2022-07-17T04:15:44;19.10;52.30
24402;DHT22;12539;48.808;11.292;2022-07-17T04:18:19;19.10;52.40
24402;DHT22;12539;48.808;11.292;2022-07-17T04:20:47;19.10;53.40
24402;DHT22;12539;48.808;11.292;2022-07-17T04:23:13;19.20;52.50
24402;DHT22;12539;48.808;11.292;2022-07-17T04:25:40;19.20;52.40
24402;DHT22;12539;48.808;11.292;2022-07-17T04:28:05;19.20;52.50
24402;DHT22;12539;48.808;11.292;2022-07-17T04:30:31;19.30;52.80
24402;DHT22;12539;48.808;11.292;2022-07-17T04:32:57;19.30;52.00
24402;DHT22;12539;48.808;11.292;2022-07-17T04:35:23;19.30;51.60
24402;DHT22;12539;48.808;11.292;2022-07-17T04:37:49;19.30;52.10
24402;DHT22;12539;48.808;11.292;2022-07-17T04:40:15;19.30;52.20
24402;DHT22;12539;48.808;11.292;2022-07-17T04:42:40;19.30;51.90
24402;DHT22;12539;48.808;11.292;2022-07-17T04:45:06;19.40;51.70
24402;DHT22;12539;48.808;11.292;2022-07-17T04:47:34;19.30;51.60
24402;DHT22;12539;48.808;11.292;2022-07-17T04:50:00;19.30;51.80
24402;DHT22;12539;48.808;11.292;2022-07-17T04:52:25;19.40;51.90
24402;DHT22;12539;48.808;11.292;2022-07-17T04:54:51;19.40;51.80
24402;DHT22;12539;48.808;11.292;2022-07-17T04:57:17;19.50;51.40
24402;DHT22;12539;48.808;11.292;2022-07-17T04:59:42;19.50;51.30
24402;DHT22;12539;48.808;11.292;2022-07-17T05:02:08;19.50;51.50
24402;DHT22;12539;48.808;11.292;2022-07-17T05:04:34;19.50;51.80
24402;DHT22;12539;48.808;11.292;2022-07-17T05:07:00;19.60;51.90
24402;DHT22;12539;48.808;11.292;2022-07-17T05:09:25;19.60;51.70
24402;DHT22;12539;48.808;11.292;2022-07-17T05:11:51;19.70;51.80
24402;DHT22;12539;48.808;11.292;2022-07-17T05:14:17;19.80;51.90
24402;DHT22;12539;48.808;11.292;2022-07-17T05:16:43;19.80;51.60
24402;DHT22;12539;48.808;11.292;2022-07-17T05:19:08;19.80;51.70
24402;DHT22;12539;48.808;11.292;2022-07-17T05:21:34;19.90;51.50
24402;DHT22;12539;48.808;11.292;2022-07-17T05:24:00;20.00;51.40
24402;DHT22;12539;48.808;11.292;2022-07-17T05:26:26;20.10;51.80
24402;DHT22;12539;48.808;11.292;2022-07-17T05:28:52;20.10;51.90
24402;DHT22;12539;48.808;11.292;2022-07-17T05:31:18;20.20;52.40
24402;DHT22;12539;48.808;11.292;2022-07-17T05:33:43;20.20;53.10
24402;DHT22;12539;48.808;11.292;2022-07-17T05:36:09;20.30;52.60
24402;DHT22;12539;48.808;11.292;2022-07-17T05:38:36;20.30;51.90
24402;DHT22;12539;48.808;11.292;2022-07-17T05:41:03;20.40;51.80
24402;DHT22;12539;48.808;11.292;2022-07-17T05:43:29;20.50;51.80
24402;DHT22;12539;48.808;11.292;2022-07-17T05:45:56;20.60;51.30
24402;DHT22;12539;48.808;11.292;2022-07-17T05:48:22;20.70;51.80
24402;DHT22;12539;48.808;11.292;2022-07-17T05:50:48;20.70;52.20
24402;DHT22;12539;48.808;11.292;2022-07-17T05:53:14;20.90;52.50
24402;DHT22;12539;48.808;11.292;2022-07-17T05:55:41;20.90;53.10
24402;DHT22;12539;48.808;11.292;2022-07-17T05:58:09;20.90;50.70
24402;DHT22;12539;48.808;11.292;2022-07-17T06:00:36;20.80;51.30
24402;DHT22;12539;48.808;11.292;2022-07-17T06:03:02;20.80;50.80
24402;DHT22;12539;48.808;11.292;2022-07-17T06:05:28;20.90;51.20
24402;DHT22;12539;48.808;11.292;2022-07-17T06:07:55;21.10;50.80
24402;DHT22;12539;48.808;11.292;2022-07-17T06:10:21;21.40;51.50
24402;DHT22;12539;48.808;11.292;2022-07-17T06:13:08;21.90;48.70
24402;DHT22;12539;48.808;11.292;2022-07-17T06:15:33;22.80;47.40
24402;DHT22;12539;48.808;11.292;2022-07-17T06:18:03;23.70;45.30
24402;DHT22;12539;48.808;11.292;2022-07-17T06:20:29;25.60;42.50
24402;DHT22;12539;48.808;11.292;2022-07-17T06:22:55;27.90;38.90
24402;DHT22;12539;48.808;11.292;2022-07-17T06:25:21;30.10;35.60
24402;DHT22;12539;48.808;11.292;2022-07-17T06:27:47;31.80;31.30
24402;DHT22;12539;48.808;11.292;2022-07-17T06:30:14;32.90;28.70
24402;DHT22;12539;48.808;11.292;2022-07-17T06:32:40;33.80;27.50
24402;DHT22;12539;48.808;11.292;2022-07-17T06:35:07;34.60;27.00
24402;DHT22;12539;48.808;11.292;2022-07-17T06:37:33;35.20;26.60
24402;DHT22;12539;48.808;11.292;2022-07-17T06:39:59;36.10;25.80
24402;DHT22;12539;48.808;11.292;2022-07-17T06:42:25;36.80;23.80
24402;DHT22;12539;48.808;11.292;2022-07-17T06:44:51;37.10;23.40
24402;DHT22;12539;48.808;11.292;2022-07-17T06:47:17;37.30;23.30
24402;DHT22;12539;48.808;11.292;2022-07-17T06:49:43;37.80;22.90
24402;DHT22;12539;48.808;11.292;2022-07-17T06:52:09;38.30;23.10
24402;DHT22;12539;48.808;11.292;2022-07-17T06:54:35;38.80;23.10
24402;DHT22;12539;48.808;11.292;2022-07-17T06:57:01;39.30;22.30
24402;DHT22;12539;48.808;11.292;2022-07-17T06:59:27;39.60;21.30
24402;DHT22;12539;48.808;11.292;2022-07-17T07:01:52;40.00;21.20
24402;DHT22;12539;48.808;11.292;2022-07-17T07:04:18;40.30;20.90
24402;DHT22;12539;48.808;11.292;2022-07-17T07:06:44;40.40;21.10
24402;DHT22;12539;48.808;11.292;2022-07-17T07:09:10;40.50;20.30
24402;DHT22;12539;48.808;11.292;2022-07-17T07:11:39;40.40;20.10
24402;DHT22;12539;48.808;11.292;2022-07-17T07:14:05;40.10;20.50
24402;DHT22;12539;48.808;11.292;2022-07-17T07:16:32;38.60;21.30
24402;DHT22;12539;48.808;11.292;2022-07-17T07:18:58;36.80;22.60
24402;DHT22;12539;48.808;11.292;2022-07-17T07:21:24;34.70;24.30
24402;DHT22;12539;48.808;11.292;2022-07-17T07:23:52;33.00;26.30
24402;DHT22;12539;48.808;11.292;2022-07-17T07:26:17;32.10;27.00
24402;DHT22;12539;48.808;11.292;2022-07-17T07:28:43;31.90;26.80
24402;DHT22;12539;48.808;11.292;2022-07-17T07:31:09;32.30;26.70
24402;DHT22;12539;48.808;11.292;2022-07-17T07:33:36;32.20;27.20
24402;DHT22;12539;48.808;11.292;2022-07-17T07:36:02;31.50;28.20
24402;DHT22;12539;48.808;11.292;2022-07-17T07:38:28;30.60;28.70
24402;DHT22;12539;48.808;11.292;2022-07-17T07:40:54;29.70;29.20
24402;DHT22;12539;48.808;11.292;2022-07-17T07:43:20;29.00;30.40
24402;DHT22;12539;48.808;11.292;2022-07-17T07:45:46;28.50;31.30
24402;DHT22;12539;48.808;11.292;2022-07-17T07:48:12;28.20;32.00
24402;DHT22;12539;48.808;11.292;2022-07-17T07:50:38;27.80;32.40
24402;DHT22;12539;48.808;11.292;2022-07-17T07:53:03;27.60;34.50
24402;DHT22;12539;48.808;11.292;2022-07-17T07:55:29;27.70;35.00
24402;DHT22;12539;48.808;11.292;2022-07-17T07:58:09;27.90;33.10
24402;DHT22;12539;48.808;11.292;2022-07-17T08:00:36;27.90;32.50
24402;DHT22;12539;48.808;11.292;2022-07-17T08:03:03;27.80;32.60
24402;DHT22;12539;48.808;11.292;2022-07-17T08:05:29;27.80;33.00
24402;DHT22;12539;48.808;11.292;2022-07-17T08:07:55;27.80;33.00
24402;DHT22;12539;48.808;11.292;2022-07-17T08:10:21;27.80;33.50
24402;DHT22;12539;48.808;11.292;2022-07-17T08:12:47;27.70;33.50
24402;DHT22;12539;48.808;11.292;2022-07-17T08:15:17;27.70;33.10
24402;DHT22;12539;48.808;11.292;2022-07-17T08:17:43;27.70;33.50
24402;DHT22;12539;48.808;11.292;2022-07-17T08:20:10;27.70;34.00
24402;DHT22;12539;48.808;11.292;2022-07-17T08:22:36;27.70;34.20
24402;DHT22;12539;48.808;11.292;2022-07-17T08:25:02;27.80;34.10
24402;DHT22;12539;48.808;11.292;2022-07-17T08:27:28;27.90;33.20
24402;DHT22;12539;48.808;11.292;2022-07-17T08:30:01;27.80;33.30
24402;DHT22;12539;48.808;11.292;2022-07-17T08:32:27;28.00;32.00
24402;DHT22;12539;48.808;11.292;2022-07-17T08:34:53;28.00;32.80
24402;DHT22;12539;48.808;11.292;2022-07-17T08:37:18;28.10;32.10
24402;DHT22;12539;48.808;11.292;2022-07-17T08:39:44;28.10;32.10
24402;DHT22;12539;48.808;11.292;2022-07-17T08:42:10;28.00;32.50
24402;DHT22;12539;48.808;11.292;2022-07-17T08:44:41;28.00;32.40
24402;DHT22;12539;48.808;11.292;2022-07-17T08:47:08;28.00;32.10
24402;DHT22;12539;48.808;11.292;2022-07-17T08:49:35;28.10;31.90
24402;DHT22;12539;48.808;11.292;2022-07-17T08:52:04;28.00;31.50
24402;DHT22;12539;48.808;11.292;2022-07-17T08:54:30;28.00;31.80
24402;DHT22;12539;48.808;11.292;2022-07-17T08:56:57;27.90;32.60
24402;DHT22;12539;48.808;11.292;2022-07-17T08:59:22;27.90;32.70
24402;DHT22;12539;48.808;11.292;2022-07-17T09:01:48;28.00;32.40
24402;DHT22;12539;48.808;11.292;2022-07-17T09:04:16;28.10;31.70
24402;DHT22;12539;48.808;11.292;2022-07-17T09:06:42;28.10;31.50
24402;DHT22;12539;48.808;11.292;2022-07-17T09:09:10;28.20;31.60
24402;DHT22;12539;48.808;11.292;2022-07-17T09:11:47;28.30;31.50
24402;DHT22;12539;48.808;11.292;2022-07-17T09:14:15;28.40;31.50
24402;DHT22;12539;48.808;11.292;2022-07-17T09:16:55;28.30;31.40
24402;DHT22;12539;48.808;11.292;2022-07-17T09:19:37;28.30;32.10
24402;DHT22;12539;48.808;11.292;2022-07-17T09:22:15;28.40;31.70
24402;DHT22;12539;48.808;11.292;2022-07-17T09:27:37;28.50;31.20
24402;DHT22;12539;48.808;11.292;2022-07-17T09:32:34;28.60;31.40
24402;DHT22;12539;48.808;11.292;2022-07-17T09:35:02;28.70;31.40
24402;DHT22;12539;48.808;11.292;2022-07-17T09:37:29;28.80;32.30
24402;DHT22;12539;48.808;11.292;2022-07-17T09:39:56;28.90;32.00
24402;DHT22;12539;48.808;11.292;2022-07-17T09:42:27;29.10;32.30
24402;DHT22;12539;48.808;11.292;2022-07-17T09:45:02;29.20;30.80
24402;DHT22;12539;48.808;11.292;2022-07-17T09:47:29;29.20;30.30
24402;DHT22;12539;48.808;11.292;2022-07-17T09:49:56;29.10;29.40
24402;DHT22;12539;48.808;11.292;2022-07-17T09:52:24;29.10;29.80
24402;DHT22;12539;48.808;11.292;2022-07-17T09:54:53;29.10;29.70
24402;DHT22;12539;48.808;11.292;2022-07-17T09:57:21;29.10;30.10
24402;DHT22;12539;48.808;11.292;2022-07-17T09:59:50;29.40;30.00
24402;DHT22;12539;48.808;11.292;2022-07-17T10:02:19;29.50;29.20
24402;DHT22;12539;48.808;11.292;2022-07-17T10:04:46;29.70;30.00
24402;DHT22;12539;48.808;11.292;2022-07-17T10:07:12;29.80;29.40
24402;DHT22;12539;48.808;11.292;2022-07-17T10:09:39;30.00;30.10
24402;DHT22;12539;48.808;11.292;2022-07-17T10:12:06;30.00;28.80
24402;DHT22;12539;48.808;11.292;2022-07-17T10:14:33;30.00;28.60
24402;DHT22;12539;48.808;11.292;2022-07-17T10:17:07;29.90;29.10
24402;DHT22;12539;48.808;11.292;2022-07-17T10:20:23;29.90;28.00
24402;DHT22;12539;48.808;11.292;2022-07-17T10:22:23;29.80;28.50
24402;DHT22;12539;48.808;11.292;2022-07-17T10:24:54;29.70;27.80
24402;DHT22;12539;48.808;11.292;2022-07-17T10:27:36;29.60;28.40
24402;DHT22;12539;48.808;11.292;2022-07-17T10:30:09;29.60;28.80
24402;DHT22;12539;48.808;11.292;2022-07-17T10:32:37;29.60;28.90
24402;DHT22;12539;48.808;11.292;2022-07-17T10:35:07;29.80;30.20
24402;DHT22;12539;48.808;11.292;2022-07-17T10:40:21;29.80;27.10
24402;DHT22;12539;48.808;11.292;2022-07-17T10:47:47;29.70;27.00
24402;DHT22;12539;48.808;11.292;2022-07-17T10:50:13;29.60;27.40
24402;DHT22;12539;48.808;11.292;2022-07-17T10:52:39;29.50;27.30
24402;DHT22;12539;48.808;11.292;2022-07-17T10:55:16;29.50;28.40
24402;DHT22;12539;48.808;11.292;2022-07-17T10:57:42;29.60;27.80
24402;DHT22;12539;48.808;11.292;2022-07-17T11:00:08;29.60;27.10
24402;DHT22;12539;48.808;11.292;2022-07-17T11:02:36;29.60;27.00
24402;DHT22;12539;48.808;11.292;2022-07-17T11:05:09;29.50;27.00
24402;DHT22;12539;48.808;11.292;2022-07-17T11:07:35;29.40;26.80
24402;DHT22;12539;48.808;11.292;2022-07-17T11:10:01;29.30;28.70
24402;DHT22;12539;48.808;11.292;2022-07-17T11:12:33;29.40;27.90
24402;DHT22;12539;48.808;11.292;2022-07-17T11:15:03;29.50;28.30
24402;DHT22;12539;48.808;11.292;2022-07-17T11:17:29;29.50;28.50
24402;DHT22;12539;48.808;11.292;2022-07-17T11:19:58;29.50;27.60
24402;DHT22;12539;48.808;11.292;2022-07-17T11:22:25;29.50;27.90
24402;DHT22;12539;48.808;11.292;2022-07-17T11:24:51;29.60;28.00
24402;DHT22;12539;48.808;11.292;2022-07-17T11:27:26;29.70;27.60
24402;DHT22;12539;48.808;11.292;2022-07-17T11:29:53;29.80;27.60
24402;DHT22;12539;48.808;11.292;2022-07-17T11:32:19;29.60;26.60
24402;DHT22;12539;48.808;11.292;2022-07-17T11:34:46;29.50;26.90
24402;DHT22;12539;48.808;11.292;2022-07-17T11:37:12;29.50;27.10
24402;DHT22;12539;48.808;11.292;2022-07-17T11:39:39;29.50;26.60
24402;DHT22;12539;48.808;11.292;2022-07-17T11:42:11;29.30;26.50
24402;DHT22;12539;48.808;11.292;2022-07-17T11:44:37;29.30;27.10
24402;DHT22;12539;48.808;11.292;2022-07-17T11:47:04;29.30;27.10
24402;DHT22;12539;48.808;11.292;2022-07-17T11:49:33;29.20;27.20
24402;DHT22;12539;48.808;11.292;2022-07-17T11:52:08;29.20;27.40
24402;DHT22;12539;48.808;11.292;2022-07-17T11:54:44;29.30;27.60
24402;DHT22;12539;48.808;11.292;2022-07-17T11:57:10;29.30;27.90
24402;DHT22;12539;48.808;11.292;2022-07-17T11:59:36;29.30;27.80
24402;DHT22;12539;48.808;11.292;2022-07-17T12:02:18;29.20;28.50
24402;DHT22;12539;48.808;11.292;2022-07-17T12:04:56;29.30;28.40
24402;DHT22;12539;48.808;11.292;2022-07-17T12:07:24;29.30;27.50
24402;DHT22;12539;48.808;11.292;2022-07-17T12:09:51;29.30;27.90
24402;DHT22;12539;48.808;11.292;2022-07-17T12:12:25;29.30;28.40
24402;DHT22;12539;48.808;11.292;2022-07-17T12:14:52;29.40;28.00
24402;DHT22;12539;48.808;11.292;2022-07-17T12:17:18;29.40;27.80
24402;DHT22;12539;48.808;11.292;2022-07-17T12:19:43;29.30;27.50
24402;DHT22;12539;48.808;11.292;2022-07-17T12:22:09;29.20;27.60
24402;DHT22;12539;48.808;11.292;2022-07-17T12:24:39;29.30;27.40
24402;DHT22;12539;48.808;11.292;2022-07-17T12:27:23;29.20;27.00
24402;DHT22;12539;48.808;11.292;2022-07-17T12:29:49;29.10;27.30
24402;DHT22;12539;48.808;11.292;2022-07-17T12:32:16;29.10;27.10
24402;DHT22;12539;48.808;11.292;2022-07-17T12:34:46;29.20;27.20
24402;DHT22;12539;48.808;11.292;2022-07-17T12:37:17;29.20;27.00
24402;DHT22;12539;48.808;11.292;2022-07-17T12:39:44;29.20;27.20
24402;DHT22;12539;48.808;11.292;2022-07-17T12:42:10;29.20;27.40
24402;DHT22;12539;48.808;11.292;2022-07-17T12:44:36;29.30;27.20
24402;DHT22;12539;48.808;11.292;2022-07-17T12:47:02;29.40;27.00
24402;DHT22;12539;48.808;11.292;2022-07-17T12:49:29;29.40;27.10
24402;DHT22;12539;48.808;11.292;2022-07-17T12:51:57;29.50;27.40
24402;DHT22;12539;48.808;11.292;2022-07-17T12:54:23;29.50;27.40
24402;DHT22;12539;48.808;11.292;2022-07-17T12:56:49;29.70;27.30
24402;DHT22;12539;48.808;11.292;2022-07-17T12:59:15;29.60;27.70
24402;DHT22;12539;48.808;11.292;2022-07-17T13:01:41;29.70;27.10
24402;DHT22;12539;48.808;11.292;2022-07-17T13:04:07;29.60;27.10
24402;DHT22;12539;48.808;11.292;2022-07-17T13:06:32;29.60;27.20
24402;DHT22;12539;48.808;11.292;2022-07-17T13:08:59;29.70;27.10
24402;DHT22;12539;48.808;11.292;2022-07-17T13:11:25;29.70;27.00
24402;DHT22;12539;48.808;11.292;2022-07-17T13:13:54;29.80;26.90
24402;DHT22;12539;48.808;11.292;2022-07-17T13:16:20;29.80;27.40
24402;DHT22;12539;48.808;11.292;2022-07-17T13:18:45;29.80;27.10
24402;DHT22;12539;48.808;11.292;2022-07-17T13:21:11;30.00;27.10
24402;DHT22;12539;48.808;11.292;2022-07-17T13:23:37;30.00;26.50
24402;DHT22;12539;48.808;11.292;2022-07-17T13:26:04;30.00;26.70
24402;DHT22;12539;48.808;11.292;2022-07-17T13:28:30;30.00;26.50
24402;DHT22;12539;48.808;11.292;2022-07-17T13:30:56;30.00;26.50
24402;DHT22;12539;48.808;11.292;2022-07-17T13:33:23;30.00;26.90
24402;DHT22;12539;48.808;11.292;2022-07-17T13:35:48;30.00;26.90
24402;DHT22;12539;48.808;11.292;2022-07-17T13:38:14;30.00;27.00
24402;DHT22;12539;48.808;11.292;2022-07-17T13:40:40;30.00;27.00
24402;DHT22;12539;48.808;11.292;2022-07-17T13:43:06;30.10;26.90
24402;DHT22;12539;48.808;11.292;2022-07-17T13:45:32;30.20;27.30
24402;DHT22;12539;48.808;11.292;2022-07-17T13:47:59;30.30;27.10
24402;DHT22;12539;48.808;11.292;2022-07-17T13:50:25;30.40;26.40
24402;DHT22;12539;48.808;11.292;2022-07-17T13:52:51;30.30;26.20
24402;DHT22;12539;48.808;11.292;2022-07-17T13:55:17;30.30;26.30
24402;DHT22;12539;48.808;11.292;2022-07-17T13:57:43;30.30;26.30
24402;DHT22;12539;48.808;11.292;2022-07-17T14:00:09;30.30;26.50
24402;DHT22;12539;48.808;11.292;2022-07-17T14:02:36;30.50;26.70
24402;DHT22;12539;48.808;11.292;2022-07-17T14:05:03;30.50;26.50
24402;DHT22;12539;48.808;11.292;2022-07-17T14:07:29;30.60;26.70
24402;DHT22;12539;48.808;11.292;2022-07-17T14:09:55;30.60;26.40
24402;DHT22;12539;48.808;11.292;2022-07-17T14:12:21;30.70;27.10
24402;DHT22;12539;48.808;11.292;2022-07-17T14:14:47;30.90;26.50
24402;DHT22;12539;48.808;11.292;2022-07-17T14:17:13;30.90;26.30
24402;DHT22;12539;48.808;11.292;2022-07-17T14:19:39;30.90;25.90
24402;DHT22;12539;48.808;11.292;2022-07-17T14:22:05;30.80;25.80
24402;DHT22;12539;48.808;11.292;2022-07-17T14:24:31;30.80;25.40
24402;DHT22;12539;48.808;11.292;2022-07-17T14:26:57;30.70;25.40
24402;DHT22;12539;48.808;11.292;2022-07-17T14:29:22;30.70;26.10
24402;DHT22;12539;48.808;11.292;2022-07-17T14:31:49;30.70;26.10
24402;DHT22;12539;48.808;11.292;2022-07-17T14:34:15;30.80;26.30
24402;DHT22;12539;48.808;11.292;2022-07-17T14:36:42;30.80;26.40
24402;DHT22;12539;48.808;11.292;2022-07-17T14:39:08;30.80;26.20
24402;DHT22;12539;48.808;11.292;2022-07-17T14:41:33;30.90;26.30
24402;DHT22;12539;48.808;11.292;2022-07-17T14:43:59;30.90;26.80
24402;DHT22;12539;48.808;11.292;2022-07-17T14:46:25;31.00;26.20
24402;DHT22;12539;48.808;11.292;2022-07-17T14:51:16;30.90;25.60
24402;DHT22;12539;48.808;11.292;2022-07-17T14:53:41;30.90;25.10
24402;DHT22;12539;48.808;11.292;2022-07-17T14:56:07;30.80;24.70
24402;DHT22;12539;48.808;11.292;2022-07-17T14:58:33;30.70;24.70
24402;DHT22;12539;48.808;11.292;2022-07-17T15:00:59;30.60;24.60
24402;DHT22;12539;48.808;11.292;2022-07-17T15:03:24;30.40;24.90
24402;DHT22;12539;48.808;11.292;2022-07-17T15:05:50;30.40;25.10
24402;DHT22;12539;48.808;11.292;2022-07-17T15:08:16;30.40;25.00
24402;DHT22;12539;48.808;11.292;2022-07-17T15:10:42;30.40;25.60
24402;DHT22;12539;48.808;11.292;2022-07-17T15:13:08;30.30;25.40
24402;DHT22;12539;48.808;11.292;2022-07-17T15:15:33;30.40;25.30
24402;DHT22;12539;48.808;11.292;2022-07-17T15:17:59;30.30;25.60
24402;DHT22;12539;48.808;11.292;2022-07-17T15:20:25;30.30;25.20
24402;DHT22;12539;48.808;11.292;2022-07-17T15:22:51;30.10;25.10
24402;DHT22;12539;48.808;11.292;2022-07-17T15:25:17;30.00;25.50
24402;DHT22;12539;48.808;11.292;2022-07-17T15:27:42;30.00;25.20
24402;DHT22;12539;48.808;11.292;2022-07-17T15:30:08;29.90;25.40